createdAt,value
2023-07-25T00:00:32.623Z,19.00
2023-07-25T00:03:00.833Z,18.90
2023-07-25T00:05:29.221Z,18.90
2023-07-25T00:07:58.684Z,18.90
2023-07-25T00:10:26.807Z,18.90
2023-07-25T00:12:56.275Z,18.80
2023-07-25T00:15:24.540Z,18.90
2023-07-25T00:17:52.748Z,18.90
2023-07-25T00:20:21.100Z,18.90
2023-07-25T00:22:49.227Z,18.90
2023-07-25T00:25:19.823Z,18.90
2023-07-25T00:27:48.059Z,18.80
2023-07-25T00:30:16.299Z,18.70
2023-07-25T00:32:44.519Z,18.70
2023-07-25T00:35:12.685Z,18.60
2023-07-25T00:37:40.789Z,18.50
2023-07-25T00:40:10.029Z,18.50
2023-07-25T00:42:39.546Z,18.50
2023-07-25T00:45:09.297Z,18.50
2023-07-25T00:47:37.634Z,18.40
2023-07-25T00:50:06.543Z,18.30
2023-07-25T00:52:34.770Z,18.20
2023-07-25T00:55:04.345Z,18.20
2023-07-25T00:57:32.937Z,18.10
2023-07-25T01:00:02.593Z,18.00
2023-07-25T01:02:30.815Z,17.90
2023-07-25T01:04:59.051Z,17.90
2023-07-25T01:07:27.394Z,17.90
2023-07-25T01:09:55.535Z,17.80
2023-07-25T01:12:25.490Z,17.70
2023-07-25T01:14:53.738Z,17.70
2023-07-25T01:17:25.157Z,17.60
2023-07-25T01:19:54.653Z,17.50
2023-07-25T01:22:23.885Z,17.40
2023-07-25T01:24:57.401Z,17.40
2023-07-25T01:27:25.516Z,17.40
2023-07-25T01:29:53.627Z,17.40
2023-07-25T01:32:21.975Z,17.40
2023-07-25T01:34:50.135Z,17.40
2023-07-25T01:37:18.258Z,17.40
2023-07-25T01:39:46.397Z,17.40
2023-07-25T01:42:15.917Z,17.40
2023-07-25T01:44:44.077Z,17.50
2023-07-25T01:47:12.313Z,17.50
2023-07-25T01:49:40.481Z,17.60
2023-07-25T01:52:09.458Z,17.60
2023-07-25T01:54:37.581Z,17.60
2023-07-25T01:57:06.380Z,17.70
2023-07-25T01:59:35.896Z,17.70
2023-07-25T02:02:04.071Z,17.70
2023-07-25T02:04:32.246Z,17.70
2023-07-25T02:07:00.416Z,17.70
2023-07-25T02:09:28.587Z,17.80
2023-07-25T02:11:56.735Z,17.80
2023-07-25T02:14:24.896Z,17.80
2023-07-25T02:16:54.656Z,17.80
2023-07-25T02:19:22.807Z,17.80
2023-07-25T02:21:50.941Z,17.90
2023-07-25T02:24:19.119Z,17.90
2023-07-25T02:26:47.292Z,17.90
2023-07-25T02:29:15.413Z,18.00
2023-07-25T02:31:43.557Z,18.00
2023-07-25T02:34:13.595Z,18.00
2023-07-25T02:36:41.754Z,18.10
2023-07-25T02:39:09.991Z,18.00
2023-07-25T02:41:38.192Z,18.00
2023-07-25T02:44:06.746Z,18.00
2023-07-25T02:46:34.964Z,18.00
2023-07-25T02:49:03.170Z,18.00
2023-07-25T02:51:32.955Z,17.90
2023-07-25T02:54:01.210Z,17.90
2023-07-25T02:56:29.915Z,17.90
2023-07-25T02:58:58.156Z,17.90
2023-07-25T03:01:26.496Z,17.90
2023-07-25T03:03:54.658Z,17.80
2023-07-25T03:06:22.765Z,17.80
2023-07-25T03:08:52.289Z,17.80
2023-07-25T03:11:20.407Z,17.80
2023-07-25T03:13:48.549Z,17.90
2023-07-25T03:16:16.761Z,17.90
2023-07-25T03:18:44.970Z,17.90
2023-07-25T03:21:13.148Z,17.90
2023-07-25T03:23:41.257Z,18.00
2023-07-25T03:26:10.785Z,18.00
2023-07-25T03:28:39.039Z,18.00
2023-07-25T03:31:07.212Z,18.00
2023-07-25T03:33:35.353Z,18.10
2023-07-25T03:36:03.721Z,18.10
2023-07-25T03:38:31.825Z,18.00
2023-07-25T03:40:59.963Z,18.10
2023-07-25T03:43:29.540Z,18.10
2023-07-25T03:45:57.812Z,18.10
2023-07-25T03:48:26.010Z,18.00
2023-07-25T03:50:54.147Z,18.10
2023-07-25T03:53:22.631Z,18.10
2023-07-25T03:55:50.860Z,18.10
2023-07-25T03:58:18.967Z,18.10
2023-07-25T04:00:48.468Z,18.10
2023-07-25T04:03:16.617Z,18.20
2023-07-25T04:05:44.816Z,18.10
2023-07-25T04:08:12.941Z,18.10
2023-07-25T04:10:41.057Z,18.10
2023-07-25T04:13:09.449Z,18.10
2023-07-25T04:15:37.568Z,18.10
2023-07-25T04:18:07.083Z,18.10
2023-07-25T04:20:36.288Z,18.10
2023-07-25T04:23:04.412Z,18.20
2023-07-25T04:25:32.532Z,18.20
2023-07-25T04:28:00.638Z,18.20
2023-07-25T04:30:28.792Z,18.20
2023-07-25T04:32:56.907Z,18.20
2023-07-25T04:35:26.517Z,18.20
2023-07-25T04:37:54.693Z,18.30
2023-07-25T04:40:22.875Z,18.30
2023-07-25T04:42:50.980Z,18.30
2023-07-25T04:45:19.262Z,18.30
2023-07-25T04:47:47.390Z,18.30
2023-07-25T04:50:15.514Z,18.40
2023-07-25T04:52:45.016Z,18.40
2023-07-25T04:55:13.189Z,18.50
2023-07-25T04:57:41.334Z,18.50
2023-07-25T05:00:10.361Z,18.60
2023-07-25T05:02:38.543Z,18.60
2023-07-25T05:05:07.639Z,18.60
2023-07-25T05:07:35.890Z,18.70
2023-07-25T05:10:06.115Z,18.70
2023-07-25T05:12:34.242Z,18.70
2023-07-25T05:15:02.379Z,18.80
2023-07-25T05:17:30.543Z,18.80
2023-07-25T05:19:58.688Z,18.70
2023-07-25T05:22:26.815Z,18.80
2023-07-25T05:24:55.211Z,18.80
2023-07-25T05:27:24.922Z,18.80
2023-07-25T05:29:53.118Z,18.80
2023-07-25T05:32:23.451Z,18.80
2023-07-25T05:34:51.654Z,18.80
2023-07-25T05:37:20.419Z,18.90
2023-07-25T05:39:48.504Z,18.80
2023-07-25T05:42:16.650Z,18.90
2023-07-25T05:44:46.150Z,18.90
2023-07-25T05:47:14.277Z,18.90
2023-07-25T05:49:42.576Z,18.90
2023-07-25T05:52:10.700Z,18.90
2023-07-25T05:54:38.801Z,18.90
2023-07-25T05:57:08.438Z,18.90
2023-07-25T05:59:36.605Z,19.00
2023-07-25T06:02:06.673Z,19.00
2023-07-25T06:04:34.790Z,19.10
2023-07-25T06:07:02.948Z,19.10
2023-07-25T06:09:31.078Z,19.20
2023-07-25T06:12:00.856Z,19.20
2023-07-25T06:14:28.987Z,19.20
2023-07-25T06:16:57.149Z,19.20
2023-07-25T06:19:26.725Z,19.20
2023-07-25T06:21:54.930Z,19.20
2023-07-25T06:24:23.105Z,19.20
2023-07-25T06:26:51.274Z,19.30
2023-07-25T06:29:19.401Z,19.30
2023-07-25T06:31:47.580Z,19.40
2023-07-25T06:34:15.677Z,19.40
2023-07-25T06:36:45.229Z,19.40
2023-07-25T06:39:13.434Z,19.50
2023-07-25T06:41:41.619Z,19.50
2023-07-25T06:44:09.797Z,19.60
2023-07-25T06:46:38.080Z,19.70
2023-07-25T06:49:06.281Z,19.70
2023-07-25T06:51:34.519Z,19.80
2023-07-25T06:54:04.112Z,19.80
2023-07-25T06:56:32.229Z,19.90
2023-07-25T06:59:01.914Z,20.00
2023-07-25T07:01:30.494Z,20.00
2023-07-25T07:03:58.897Z,20.10
2023-07-25T07:06:27.000Z,20.10
2023-07-25T07:08:55.104Z,20.20
2023-07-25T07:11:24.784Z,20.20
2023-07-25T07:13:53.184Z,20.20
2023-07-25T07:16:21.350Z,20.20
2023-07-25T07:18:49.485Z,20.20
2023-07-25T07:21:17.614Z,20.20
2023-07-25T07:23:53.205Z,20.20
2023-07-25T07:26:30.965Z,20.20
2023-07-25T07:29:04.534Z,20.20
2023-07-25T07:31:35.604Z,20.20
2023-07-25T07:34:14.501Z,20.10
2023-07-25T07:36:42.900Z,20.10
2023-07-25T07:39:11.224Z,20.10
2023-07-25T07:41:40.928Z,20.00
2023-07-25T07:44:09.303Z,20.00
2023-07-25T07:46:37.891Z,20.00
2023-07-25T07:49:06.170Z,19.90
2023-07-25T07:51:34.611Z,19.90
2023-07-25T07:54:03.161Z,19.90
2023-07-25T07:56:31.315Z,19.80
2023-07-25T07:59:00.895Z,19.80
2023-07-25T08:01:30.166Z,19.70
2023-07-25T08:03:58.812Z,19.70
2023-07-25T08:06:26.960Z,19.60
2023-07-25T08:08:55.341Z,19.60
2023-07-25T08:11:23.813Z,19.50
2023-07-25T08:13:52.136Z,19.50
2023-07-25T08:16:25.924Z,19.50
2023-07-25T08:18:54.334Z,19.40
2023-07-25T08:21:22.444Z,19.40
2023-07-25T08:23:50.721Z,19.40
2023-07-25T08:26:18.912Z,19.30
2023-07-25T08:28:48.564Z,19.30
2023-07-25T08:31:16.788Z,19.20
2023-07-25T08:33:46.363Z,19.20
2023-07-25T08:36:14.643Z,19.20
2023-07-25T08:38:43.488Z,19.20
2023-07-25T08:41:14.089Z,19.10
2023-07-25T08:43:44.559Z,19.10
2023-07-25T08:46:14.723Z,19.10
2023-07-25T08:48:45.034Z,19.10
2023-07-25T08:51:20.154Z,19.10
2023-07-25T08:53:54.904Z,19.10
2023-07-25T08:56:24.369Z,19.10
2023-07-25T08:58:53.236Z,19.10
2023-07-25T09:01:22.529Z,19.10
2023-07-25T09:03:54.476Z,19.10
2023-07-25T09:06:25.797Z,19.10
2023-07-25T09:08:53.972Z,19.10
2023-07-25T09:11:22.752Z,19.10
2023-07-25T09:13:51.354Z,19.10
2023-07-25T09:16:19.840Z,19.20
2023-07-25T09:18:48.378Z,19.20
2023-07-25T09:21:18.526Z,19.20
2023-07-25T09:23:53.267Z,19.20
2023-07-25T09:26:24.651Z,19.20
2023-07-25T09:28:55.930Z,19.20
2023-07-25T09:31:28.199Z,19.30
2023-07-25T09:33:57.654Z,19.30
2023-07-25T09:36:31.855Z,19.30
2023-07-25T09:39:00.510Z,19.30
2023-07-25T09:41:31.416Z,19.40
2023-07-25T09:44:06.284Z,19.40
2023-07-25T09:46:34.499Z,19.30
2023-07-25T09:49:04.122Z,19.30
2023-07-25T09:51:34.079Z,19.40
2023-07-25T09:54:06.540Z,19.30
2023-07-25T09:56:36.102Z,19.30
2023-07-25T09:59:08.454Z,19.30
2023-07-25T10:01:39.234Z,19.30
2023-07-25T10:04:08.488Z,19.20
2023-07-25T10:06:38.711Z,19.20
2023-07-25T10:09:07.790Z,19.10
2023-07-25T10:11:38.720Z,19.10
2023-07-25T10:14:08.899Z,19.00
2023-07-25T10:16:39.616Z,19.00
2023-07-25T10:19:08.606Z,19.00
2023-07-25T10:21:50.298Z,19.00
2023-07-25T10:24:19.689Z,18.90
2023-07-25T10:26:55.459Z,18.90
2023-07-25T10:29:47.876Z,18.90
2023-07-25T10:32:17.272Z,19.00
2023-07-25T10:34:50.138Z,19.00
2023-07-25T10:37:24.162Z,19.00
2023-07-25T10:40:06.193Z,19.10
2023-07-25T10:42:59.996Z,19.10
2023-07-25T10:45:56.615Z,19.20
2023-07-25T10:48:35.872Z,19.30
2023-07-25T10:51:07.805Z,19.50
2023-07-25T10:53:38.157Z,19.70
2023-07-25T10:56:17.239Z,19.80
2023-07-25T10:59:06.056Z,19.90
2023-07-25T11:01:37.436Z,20.00
2023-07-25T11:04:28.648Z,20.00
2023-07-25T11:06:58.680Z,20.10
2023-07-25T11:09:29.157Z,20.10
2023-07-25T11:11:58.129Z,20.20
2023-07-25T11:14:26.292Z,20.20
2023-07-25T11:16:56.050Z,20.30
2023-07-25T11:19:28.622Z,20.30
2023-07-25T11:21:57.042Z,20.40
2023-07-25T11:24:25.276Z,20.40
2023-07-25T11:26:54.813Z,20.60
2023-07-25T11:29:24.051Z,20.70
2023-07-25T11:31:52.350Z,20.80
2023-07-25T11:34:21.929Z,20.90
2023-07-25T11:36:50.185Z,21.00
2023-07-25T11:39:19.736Z,21.20
2023-07-25T11:41:48.164Z,21.30
2023-07-25T11:44:19.189Z,21.60
2023-07-25T11:46:50.675Z,21.80
2023-07-25T11:49:31.883Z,22.10
2023-07-25T11:52:08.866Z,22.30
2023-07-25T11:54:37.128Z,22.60
2023-07-25T11:57:07.704Z,22.80
2023-07-25T11:59:43.438Z,23.00
2023-07-25T12:02:13.951Z,23.10
2023-07-25T12:04:46.000Z,23.30
2023-07-25T12:07:15.029Z,23.50
2023-07-25T12:09:52.608Z,23.70
2023-07-25T12:12:21.612Z,23.90
2023-07-25T12:14:58.461Z,24.00
2023-07-25T12:17:44.657Z,24.10
2023-07-25T12:20:17.625Z,24.20
2023-07-25T12:22:46.379Z,24.40
2023-07-25T12:25:18.879Z,24.50
2023-07-25T12:27:48.459Z,24.80
2023-07-25T12:30:18.444Z,25.10
2023-07-25T12:32:46.717Z,25.40
2023-07-25T12:35:15.031Z,25.50
2023-07-25T12:37:43.157Z,25.50
2023-07-25T12:40:11.902Z,25.50
2023-07-25T12:42:40.008Z,25.50
2023-07-25T12:45:11.084Z,25.40
2023-07-25T12:47:41.241Z,25.40
2023-07-25T12:50:10.953Z,25.30
2023-07-25T12:52:39.391Z,25.40
2023-07-25T12:55:08.374Z,25.40
2023-07-25T12:57:36.658Z,25.50
2023-07-25T13:00:08.312Z,25.60
2023-07-25T13:02:37.995Z,25.80
2023-07-25T13:05:09.259Z,25.90
2023-07-25T13:07:37.573Z,25.90
2023-07-25T13:10:08.020Z,25.80
2023-07-25T13:12:36.714Z,25.70
2023-07-25T13:15:05.938Z,25.50
2023-07-25T13:17:34.475Z,25.40
2023-07-25T13:20:05.588Z,25.20
2023-07-25T13:22:35.147Z,25.00
2023-07-25T13:25:04.047Z,24.90
2023-07-25T13:27:32.326Z,24.70
2023-07-25T13:30:01.546Z,24.60
2023-07-25T13:32:29.909Z,24.70
2023-07-25T13:34:58.095Z,24.80
2023-07-25T13:37:26.212Z,24.90
2023-07-25T13:39:55.733Z,25.00
2023-07-25T13:42:24.505Z,25.10
2023-07-25T13:44:52.660Z,25.20
2023-07-25T13:47:20.815Z,25.20
2023-07-25T13:49:49.047Z,25.20
2023-07-25T13:52:17.441Z,25.10
2023-07-25T13:54:45.727Z,24.90
2023-07-25T13:57:15.313Z,24.80
2023-07-25T13:59:43.482Z,24.60
2023-07-25T14:02:11.798Z,24.60
2023-07-25T14:04:41.062Z,24.50
2023-07-25T14:07:09.381Z,24.50
2023-07-25T14:09:37.513Z,24.50
2023-07-25T14:12:07.015Z,24.50
2023-07-25T14:14:37.194Z,24.40
2023-07-25T14:17:06.928Z,24.40
2023-07-25T14:19:35.168Z,24.40
2023-07-25T14:22:03.310Z,24.50
2023-07-25T14:24:32.000Z,24.50
2023-07-25T14:27:00.168Z,24.50
2023-07-25T14:29:28.313Z,24.50
2023-07-25T14:31:59.357Z,24.50
2023-07-25T14:34:27.640Z,24.50
2023-07-25T14:36:55.767Z,24.50
2023-07-25T14:39:23.963Z,24.60
2023-07-25T14:41:52.188Z,24.60
2023-07-25T14:44:20.708Z,24.60
2023-07-25T14:46:48.942Z,24.70
2023-07-25T14:49:18.548Z,24.80
2023-07-25T14:51:46.827Z,24.90
2023-07-25T14:54:14.945Z,25.00
2023-07-25T14:56:43.083Z,25.20
2023-07-25T14:59:12.984Z,25.30
2023-07-25T15:01:41.194Z,25.30
2023-07-25T15:04:09.360Z,25.40
2023-07-25T15:06:38.849Z,25.40
2023-07-25T15:09:07.048Z,25.50
2023-07-25T15:11:35.736Z,25.50
2023-07-25T15:14:03.924Z,25.60
2023-07-25T15:16:32.841Z,25.60
2023-07-25T15:19:01.329Z,25.60
2023-07-25T15:21:29.656Z,25.60
2023-07-25T15:23:59.399Z,25.60
2023-07-25T15:26:27.632Z,25.60
2023-07-25T15:28:56.080Z,25.50
2023-07-25T15:31:24.247Z,25.50
2023-07-25T15:33:52.497Z,25.50
2023-07-25T15:36:20.624Z,25.40
2023-07-25T15:38:49.168Z,25.40
2023-07-25T15:41:18.730Z,25.40
2023-07-25T15:43:47.052Z,25.40
2023-07-25T15:46:15.234Z,25.30
2023-07-25T15:48:43.366Z,25.30
2023-07-25T15:51:11.558Z,25.30
2023-07-25T15:53:40.755Z,25.30
2023-07-25T15:56:08.877Z,25.20
2023-07-25T15:58:38.433Z,25.20
2023-07-25T16:01:06.913Z,25.20
2023-07-25T16:03:35.164Z,25.10
2023-07-25T16:06:03.423Z,25.00
2023-07-25T16:08:31.620Z,24.80
2023-07-25T16:10:59.736Z,24.70
2023-07-25T16:13:28.105Z,24.50
2023-07-25T16:15:57.612Z,24.40
2023-07-25T16:18:25.718Z,24.30
2023-07-25T16:20:53.903Z,24.20
2023-07-25T16:23:22.044Z,24.10
2023-07-25T16:25:51.787Z,24.10
2023-07-25T16:28:18.898Z,24.10
2023-07-25T16:30:47.124Z,24.00
2023-07-25T16:33:16.641Z,24.00
2023-07-25T16:35:44.877Z,24.00
2023-07-25T16:38:13.267Z,23.90
2023-07-25T16:40:41.620Z,23.90
2023-07-25T16:43:09.799Z,23.90
2023-07-25T16:45:37.918Z,23.90
2023-07-25T16:48:06.616Z,23.80
2023-07-25T16:50:36.343Z,23.80
2023-07-25T16:53:06.696Z,23.70
2023-07-25T16:55:35.186Z,23.70
2023-07-25T16:58:03.367Z,23.60
2023-07-25T17:00:31.635Z,23.60
2023-07-25T17:02:59.838Z,23.50
2023-07-25T17:05:28.093Z,23.50
2023-07-25T17:07:58.561Z,23.40
2023-07-25T17:10:26.801Z,23.30
2023-07-25T17:12:54.949Z,23.20
2023-07-25T17:15:23.330Z,23.10
2023-07-25T17:17:51.608Z,23.10
2023-07-25T17:20:22.159Z,23.00
2023-07-25T17:22:51.184Z,22.90
2023-07-25T17:25:20.764Z,22.80
2023-07-25T17:27:48.893Z,22.80
2023-07-25T17:30:18.073Z,22.70
2023-07-25T17:32:47.049Z,22.70
2023-07-25T17:35:23.977Z,22.60
2023-07-25T17:37:52.479Z,22.50
2023-07-25T17:40:22.029Z,22.40
2023-07-25T17:42:50.254Z,22.40
2023-07-25T17:45:19.106Z,22.30
2023-07-25T17:47:47.279Z,22.20
2023-07-25T17:50:15.541Z,22.10
2023-07-25T17:52:43.700Z,22.00
2023-07-25T17:55:11.873Z,22.00
2023-07-25T17:57:41.429Z,21.90
2023-07-25T18:00:10.590Z,21.90
2023-07-25T18:02:38.856Z,21.80
2023-07-25T18:05:07.750Z,21.70
2023-07-25T18:07:36.206Z,21.70
2023-07-25T18:10:04.431Z,21.60
2023-07-25T18:12:32.580Z,21.60
2023-07-25T18:15:02.242Z,21.50
2023-07-25T18:17:30.413Z,21.50
2023-07-25T18:19:58.645Z,21.40
2023-07-25T18:22:28.898Z,21.40
2023-07-25T18:24:59.811Z,21.40
2023-07-25T18:27:27.979Z,21.30
2023-07-25T18:29:56.563Z,21.30
2023-07-25T18:32:26.158Z,21.30
2023-07-25T18:34:54.362Z,21.30
2023-07-25T18:37:22.529Z,21.30
2023-07-25T18:39:50.629Z,21.20
2023-07-25T18:42:22.408Z,21.20
2023-07-25T18:44:50.534Z,21.10
2023-07-25T18:47:33.622Z,21.10
2023-07-25T18:50:04.685Z,21.10
2023-07-25T18:52:32.891Z,21.10
2023-07-25T18:55:01.053Z,21.10
2023-07-25T18:57:29.368Z,21.10
2023-07-25T18:59:58.223Z,21.10
2023-07-25T19:02:26.459Z,21.00
2023-07-25T19:04:55.047Z,21.00
2023-07-25T19:07:24.642Z,21.00
2023-07-25T19:09:53.063Z,21.00
2023-07-25T19:12:22.464Z,21.00
2023-07-25T19:14:50.826Z,20.90
2023-07-25T19:17:19.049Z,20.90
2023-07-25T19:19:47.290Z,20.90
2023-07-25T19:22:15.799Z,20.90
2023-07-25T19:24:47.753Z,20.80
2023-07-25T19:27:16.805Z,20.80
2023-07-25T19:29:45.078Z,20.80
2023-07-25T19:32:14.966Z,20.70
2023-07-25T19:34:43.405Z,20.70
2023-07-25T19:37:11.633Z,20.70
2023-07-25T19:39:39.986Z,20.70
2023-07-25T19:42:10.637Z,20.70
2023-07-25T19:44:39.002Z,20.70
2023-07-25T19:47:07.424Z,20.70
2023-07-25T19:49:35.979Z,20.70
2023-07-25T19:52:04.227Z,20.70
2023-07-25T19:54:32.389Z,20.70
2023-07-25T19:57:00.761Z,20.60
2023-07-25T19:59:30.236Z,20.60
2023-07-25T20:01:58.350Z,20.60
2023-07-25T20:04:26.505Z,20.60
2023-07-25T20:06:54.904Z,20.60
2023-07-25T20:09:23.497Z,20.60
2023-07-25T20:11:51.679Z,20.50
2023-07-25T20:14:20.582Z,20.50
2023-07-25T20:16:51.973Z,20.40
2023-07-25T20:19:24.120Z,20.40
2023-07-25T20:21:52.805Z,20.30
2023-07-25T20:24:20.932Z,20.30
2023-07-25T20:26:49.249Z,20.30
2023-07-25T20:29:17.370Z,20.20
2023-07-25T20:31:45.597Z,20.10
2023-07-25T20:34:15.474Z,20.10
2023-07-25T20:36:43.595Z,20.10
2023-07-25T20:39:11.814Z,20.10
2023-07-25T20:41:39.991Z,20.00
2023-07-25T20:44:08.210Z,20.00
2023-07-25T20:46:36.698Z,19.90
2023-07-25T20:49:05.283Z,19.90
2023-07-25T20:51:34.828Z,19.90
2023-07-25T20:54:03.303Z,19.80
2023-07-25T20:56:31.846Z,19.80
2023-07-25T20:59:00.931Z,19.80
2023-07-25T21:01:29.144Z,19.70
2023-07-25T21:03:57.361Z,19.70
2023-07-25T21:06:26.742Z,19.70
2023-07-25T21:08:56.294Z,19.70
2023-07-25T21:11:24.770Z,19.70
2023-07-25T21:13:53.007Z,19.70
2023-07-25T21:16:22.449Z,19.60
2023-07-25T21:18:50.861Z,19.60
2023-07-25T21:21:19.371Z,19.50
2023-07-25T21:23:47.529Z,19.50
2023-07-25T21:26:17.045Z,19.40
2023-07-25T21:28:45.274Z,19.40
2023-07-25T21:31:13.427Z,19.30
2023-07-25T21:33:41.570Z,19.30
2023-07-25T21:36:11.774Z,19.20
2023-07-25T21:38:41.498Z,19.10
2023-07-25T21:41:13.314Z,19.10
2023-07-25T21:43:43.439Z,19.10
2023-07-25T21:46:11.969Z,19.00
2023-07-25T21:48:40.165Z,19.00
2023-07-25T21:51:08.956Z,19.00
2023-07-25T21:53:37.268Z,18.90
2023-07-25T21:56:05.884Z,18.90
2023-07-25T21:58:34.054Z,18.90
2023-07-25T22:01:03.693Z,18.90
2023-07-25T22:03:32.977Z,18.80
2023-07-25T22:06:01.661Z,18.80
2023-07-25T22:08:29.825Z,18.80
2023-07-25T22:10:58.064Z,18.70
2023-07-25T22:13:27.664Z,18.70
2023-07-25T22:15:55.866Z,18.70
2023-07-25T22:18:25.397Z,18.70
2023-07-25T22:20:53.610Z,18.70
2023-07-25T22:23:22.195Z,18.70
2023-07-25T22:25:50.387Z,18.70
2023-07-25T22:28:18.702Z,18.70
2023-07-25T22:30:46.889Z,18.70
2023-07-25T22:33:15.018Z,18.70
2023-07-25T22:35:44.557Z,18.70
2023-07-25T22:38:12.681Z,18.70
2023-07-25T22:40:41.941Z,18.70
2023-07-25T22:43:10.080Z,18.70
2023-07-25T22:45:38.224Z,18.60
2023-07-25T22:48:07.009Z,18.60
2023-07-25T22:50:35.280Z,18.60
2023-07-25T22:53:04.811Z,18.60
2023-07-25T22:55:34.497Z,18.60
2023-07-25T22:58:02.682Z,18.60
2023-07-25T23:00:30.807Z,18.60
2023-07-25T23:02:59.045Z,18.60
2023-07-25T23:05:27.237Z,18.50
2023-07-25T23:07:55.364Z,18.50
2023-07-25T23:10:24.904Z,18.50
2023-07-25T23:12:53.085Z,18.50
2023-07-25T23:15:21.250Z,18.40
2023-07-25T23:17:49.438Z,18.40
2023-07-25T23:20:18.019Z,18.40
2023-07-25T23:22:46.176Z,18.40
2023-07-25T23:25:14.295Z,18.40
2023-07-25T23:27:43.817Z,18.30
2023-07-25T23:30:13.145Z,18.30
2023-07-25T23:32:41.507Z,18.30
2023-07-25T23:35:10.728Z,18.30
2023-07-25T23:37:38.853Z,18.30
2023-07-25T23:40:09.360Z,18.30
2023-07-25T23:42:37.552Z,18.30
2023-07-25T23:45:08.234Z,18.30
2023-07-25T23:47:36.403Z,18.30
2023-07-25T23:50:06.241Z,18.20
2023-07-25T23:52:35.094Z,18.20
2023-07-25T23:55:03.461Z,18.20
2023-07-25T23:57:31.596Z,18.10
2023-07-25T23:59:59.757Z,18.10
